首页
METAR-TAF:

METAR-TAF

机场 :

阿必尚國際機場

阿比让, 科特迪瓦

纬度: 05-15N, 经度: 003-56W, 海拔: 7米

当前天气观测

该预报发布于31分钟前的01:30 UTC
风速3节,风向西转西南
温度 27°C
湿度 94%
气压 1011 hPa
能見度: 9000
少量云层高于1200英尺

METAR: DIAP 230130Z 24003KT 9000 FEW012 27/26 Q1011 NOSIG

时间: 02:01 (02:01 UTC)

预报

该预报发布于3小时和1分钟前的23:00 UTC
预报有效从23日的 00点(UTC)到 24日的 06点(UTC)
风速4节,风向西转西南
能见度10公里或以上
散云层高于1200英尺
短暂存在
从 23日的 18点(UTC)到 23日的 22点(UTC)
多云层高于1200英尺

TAF: DIAP 222300Z 2300/2406 24004KT 9999 SCT012 TEMPO 2318/2322 BKN012

超过4000个机场的气象观测和天气预报(METAR&TAF报告)。

可查询的气象台以黄色和红色小点在地图上表示。

将鼠标移到小点上方,可查看气象台名称。

然后点击查看天气观测和预报。

如需切换地图:点击带黑十字的绿色按钮放大地图;点击带横线的绿色按钮缩小地图;或者点击绿色箭头查看邻近地区的地图。


METAR-TAF: